createdAt,value
2022-10-09T00:01:23.653Z,73.68
2022-10-09T00:03:52.536Z,73.13
2022-10-09T00:06:22.267Z,73.01
2022-10-09T00:08:49.201Z,72.82
2022-10-09T00:11:18.403Z,72.83
2022-10-09T00:13:45.222Z,72.62
2022-10-09T00:16:14.168Z,72.89
2022-10-09T00:18:41.172Z,72.52
2022-10-09T00:21:19.481Z,73.04
2022-10-09T00:23:50.389Z,72.68
2022-10-09T00:26:17.720Z,72.76
2022-10-09T00:28:44.197Z,72.41
2022-10-09T00:31:11.985Z,72.82
2022-10-09T00:33:38.936Z,73.07
2022-10-09T00:36:07.119Z,73.16
2022-10-09T00:38:34.466Z,73.13
2022-10-09T00:41:00.840Z,73.69
2022-10-09T00:44:00.632Z,73.18
2022-10-09T00:46:36.424Z,72.95
2022-10-09T00:49:13.493Z,72.88
2022-10-09T00:51:42.019Z,72.94
2022-10-09T00:54:14.085Z,73.45
2022-10-09T00:56:40.607Z,73.25
2022-10-09T00:59:07.198Z,73.27
2022-10-09T01:01:33.910Z,73.24
2022-10-09T01:04:00.309Z,74.20
2022-10-09T01:06:32.063Z,73.99
2022-10-09T01:09:57.113Z,74.26
2022-10-09T01:12:42.041Z,75.11
2022-10-09T01:15:17.823Z,75.90
2022-10-09T01:17:56.090Z,77.28
2022-10-09T01:20:31.585Z,77.17
2022-10-09T01:23:16.843Z,77.83
2022-10-09T01:25:56.701Z,77.47
2022-10-09T01:28:28.953Z,77.40
2022-10-09T01:31:00.029Z,78.07
2022-10-09T01:33:28.837Z,79.23
2022-10-09T01:35:55.694Z,79.41
2022-10-09T01:38:24.191Z,79.69
2022-10-09T01:40:53.379Z,79.82
2022-10-09T01:43:20.491Z,79.24
2022-10-09T01:45:48.956Z,78.92
2022-10-09T01:48:24.933Z,78.50
2022-10-09T01:50:57.774Z,77.78
2022-10-09T01:53:25.479Z,77.42
2022-10-09T01:56:11.317Z,76.72
2022-10-09T01:58:44.186Z,75.61
2022-10-09T02:01:17.945Z,74.85
2022-10-09T02:03:48.302Z,74.31
2022-10-09T02:06:16.685Z,73.94
2022-10-09T02:08:45.375Z,73.77
2022-10-09T02:11:14.783Z,73.41
2022-10-09T02:13:42.090Z,73.00
2022-10-09T02:16:21.535Z,73.29
2022-10-09T02:19:03.920Z,73.26
2022-10-09T02:21:46.338Z,73.31
2022-10-09T02:24:20.024Z,72.66
2022-10-09T02:26:46.804Z,73.10
2022-10-09T02:29:14.700Z,73.07
2022-10-09T02:31:43.043Z,73.19
2022-10-09T02:34:12.885Z,73.24
2022-10-09T02:36:39.903Z,73.56
2022-10-09T02:39:07.068Z,73.92
2022-10-09T02:41:33.815Z,73.61
2022-10-09T02:44:00.440Z,73.92
2022-10-09T02:46:27.293Z,73.95
2022-10-09T02:48:54.015Z,74.38
2022-10-09T02:51:20.503Z,73.97
2022-10-09T02:53:46.852Z,74.40
2022-10-09T02:56:13.729Z,74.87
2022-10-09T02:58:40.563Z,75.56
2022-10-09T03:01:07.054Z,75.22
2022-10-09T03:03:33.763Z,74.47
2022-10-09T03:06:14.221Z,75.44
2022-10-09T03:08:42.976Z,74.62
2022-10-09T03:11:10.152Z,75.13
2022-10-09T03:13:37.618Z,74.45
2022-10-09T03:16:09.397Z,74.59
2022-10-09T03:18:36.563Z,74.42
2022-10-09T03:21:11.487Z,74.26
2022-10-09T03:23:38.230Z,73.62
2022-10-09T03:26:07.598Z,73.32
2022-10-09T03:28:39.104Z,73.20
2022-10-09T03:31:06.649Z,73.38
2022-10-09T03:33:34.888Z,73.21
2022-10-09T03:36:02.058Z,72.97
2022-10-09T03:38:28.567Z,72.83
2022-10-09T03:40:55.010Z,72.60
2022-10-09T03:43:21.484Z,72.36
2022-10-09T03:45:47.881Z,72.54
2022-10-09T03:48:14.548Z,72.51
2022-10-09T03:50:41.529Z,71.78
2022-10-09T03:53:09.732Z,72.04
2022-10-09T03:55:36.281Z,72.02
2022-10-09T03:58:02.804Z,71.91
2022-10-09T04:00:29.711Z,72.01
2022-10-09T04:02:56.264Z,71.80
2022-10-09T04:05:22.728Z,71.77
2022-10-09T04:07:49.374Z,71.79
2022-10-09T04:10:16.111Z,71.92
2022-10-09T04:12:42.694Z,71.34
2022-10-09T04:15:09.699Z,71.39
2022-10-09T04:17:36.123Z,71.52
2022-10-09T04:20:02.860Z,71.33
2022-10-09T04:22:29.296Z,71.55
2022-10-09T04:24:55.738Z,71.38
2022-10-09T04:27:22.097Z,71.47
2022-10-09T04:29:48.490Z,71.38
2022-10-09T04:32:14.944Z,70.89
2022-10-09T04:34:41.303Z,70.66
2022-10-09T04:37:07.804Z,71.53
2022-10-09T04:39:34.172Z,71.31
2022-10-09T04:42:00.533Z,70.93
2022-10-09T04:44:27.015Z,70.53
2022-10-09T04:46:53.430Z,70.78
2022-10-09T04:49:19.863Z,70.57
2022-10-09T04:51:46.194Z,70.33
2022-10-09T04:54:13.372Z,70.75
2022-10-09T04:56:39.818Z,70.73
2022-10-09T04:59:06.226Z,70.42
2022-10-09T05:01:37.845Z,70.27
2022-10-09T05:04:04.796Z,70.92
2022-10-09T05:06:31.175Z,70.77
2022-10-09T05:08:57.605Z,70.31
2022-10-09T05:11:25.748Z,70.25
2022-10-09T05:13:54.728Z,70.16
2022-10-09T05:16:27.226Z,70.45
2022-10-09T05:18:56.144Z,70.74
2022-10-09T05:21:22.809Z,69.92
2022-10-09T05:23:49.296Z,70.54
2022-10-09T05:26:18.395Z,70.67
2022-10-09T05:28:49.124Z,70.38
2022-10-09T05:31:24.568Z,70.77
2022-10-09T05:33:51.636Z,70.77
2022-10-09T05:36:18.352Z,70.41
2022-10-09T05:38:45.562Z,70.88
2022-10-09T05:41:15.124Z,70.34
2022-10-09T05:43:43.351Z,70.22
2022-10-09T05:46:15.329Z,70.04
2022-10-09T05:48:43.634Z,70.46
2022-10-09T05:51:11.859Z,69.72
2022-10-09T05:53:40.141Z,70.03
2022-10-09T05:56:19.127Z,69.69
2022-10-09T05:58:53.525Z,69.66
2022-10-09T06:01:21.808Z,69.84
2022-10-09T06:03:50.716Z,70.07
2022-10-09T06:06:18.531Z,69.37
2022-10-09T06:08:45.366Z,70.16
2022-10-09T06:11:14.507Z,70.21
2022-10-09T06:13:41.884Z,70.33
2022-10-09T06:16:08.733Z,69.55
2022-10-09T06:18:35.129Z,69.95
2022-10-09T06:21:02.870Z,70.13
2022-10-09T06:23:29.964Z,70.72
2022-10-09T06:25:59.294Z,70.11
2022-10-09T06:28:25.911Z,71.14
2022-10-09T06:30:52.324Z,70.60
2022-10-09T06:33:18.863Z,70.53
2022-10-09T06:35:45.334Z,71.02
2022-10-09T06:38:11.835Z,71.03
2022-10-09T06:40:38.542Z,71.23
2022-10-09T06:43:05.428Z,71.80
2022-10-09T06:45:36.615Z,71.11
2022-10-09T06:48:03.086Z,72.02
2022-10-09T06:50:29.631Z,72.03
2022-10-09T06:52:56.579Z,72.09
2022-10-09T06:55:27.849Z,72.72
2022-10-09T06:57:55.042Z,72.56
2022-10-09T07:00:21.635Z,72.92
2022-10-09T07:02:48.379Z,72.99
2022-10-09T07:05:15.418Z,72.52
2022-10-09T07:07:42.457Z,72.80
2022-10-09T07:10:09.825Z,73.70
2022-10-09T07:12:36.978Z,73.50
2022-10-09T07:15:05.637Z,73.52
2022-10-09T07:17:32.483Z,73.62
2022-10-09T07:19:58.811Z,73.78
2022-10-09T07:22:27.096Z,73.85
2022-10-09T07:24:53.746Z,74.38
2022-10-09T07:27:20.176Z,73.55
2022-10-09T07:29:47.553Z,73.88
2022-10-09T07:32:13.928Z,73.38
2022-10-09T07:34:40.283Z,74.08
2022-10-09T07:37:06.776Z,74.11
2022-10-09T07:39:34.821Z,73.99
2022-10-09T07:42:02.099Z,74.70
2022-10-09T07:44:29.767Z,74.14
2022-10-09T07:46:56.092Z,74.40
2022-10-09T07:49:22.507Z,74.85
2022-10-09T07:51:49.195Z,74.51
2022-10-09T07:54:15.817Z,75.03
2022-10-09T07:56:42.330Z,75.70
2022-10-09T07:59:13.057Z,75.17
2022-10-09T08:01:39.667Z,75.43
2022-10-09T08:04:06.121Z,74.87
2022-10-09T08:06:32.763Z,75.40
2022-10-09T08:09:01.049Z,75.88
2022-10-09T08:11:29.099Z,75.93
2022-10-09T08:13:55.674Z,75.61
2022-10-09T08:16:23.899Z,76.20
2022-10-09T08:18:54.442Z,75.88
2022-10-09T08:21:20.970Z,75.75
2022-10-09T08:23:47.408Z,75.95
2022-10-09T08:26:18.867Z,75.63
2022-10-09T08:28:50.796Z,75.76
2022-10-09T08:31:17.645Z,75.81
2022-10-09T08:33:44.486Z,75.67
2022-10-09T08:36:14.332Z,75.54
2022-10-09T08:38:48.667Z,75.35
2022-10-09T08:41:29.121Z,74.97
2022-10-09T08:44:05.982Z,75.18
2022-10-09T08:47:00.339Z,74.68
2022-10-09T08:49:34.489Z,75.14
2022-10-09T08:52:13.915Z,74.30
2022-10-09T08:54:40.301Z,73.70
2022-10-09T08:57:13.863Z,74.51
2022-10-09T08:59:40.680Z,73.83
2022-10-09T09:02:20.619Z,74.39
2022-10-09T09:05:29.067Z,73.32
2022-10-09T09:08:05.356Z,72.41
2022-10-09T09:10:55.050Z,72.22
2022-10-09T09:13:45.426Z,72.20
2022-10-09T09:16:24.225Z,71.32
2022-10-09T09:19:31.553Z,70.94
2022-10-09T09:21:58.804Z,69.71
2022-10-09T09:24:38.253Z,70.59
2022-10-09T09:27:12.860Z,69.91
2022-10-09T09:30:01.725Z,69.54
2022-10-09T09:32:30.353Z,70.63
2022-10-09T09:35:08.188Z,69.78
2022-10-09T09:37:34.736Z,69.61
2022-10-09T09:40:35.559Z,68.90
2022-10-09T09:42:48.418Z,68.61
2022-10-09T09:45:20.592Z,69.02
2022-10-09T09:47:51.785Z,67.84
2022-10-09T09:50:50.148Z,66.14
2022-10-09T09:53:37.631Z,66.30
2022-10-09T09:56:04.682Z,65.16
2022-10-09T09:58:43.507Z,64.05
2022-10-09T10:01:39.180Z,62.76
2022-10-09T10:04:19.841Z,62.44
2022-10-09T10:06:46.295Z,58.81
2022-10-09T10:09:16.037Z,51.95
2022-10-09T10:12:03.847Z,51.02
2022-10-09T10:14:31.570Z,47.00
2022-10-09T10:17:01.131Z,43.65
2022-10-09T10:19:35.222Z,41.94
2022-10-09T10:22:07.794Z,39.00
2022-10-09T10:24:41.510Z,37.85
2022-10-09T10:27:25.549Z,36.68
2022-10-09T10:29:58.113Z,35.56
2022-10-09T10:32:36.034Z,36.05
2022-10-09T10:35:04.220Z,32.72
2022-10-09T10:37:50.075Z,32.46
2022-10-09T10:40:24.576Z,31.81
2022-10-09T10:43:15.350Z,32.14
2022-10-09T10:45:55.820Z,30.29
2022-10-09T10:48:28.594Z,32.80
2022-10-09T10:51:19.768Z,36.79
2022-10-09T10:54:13.041Z,39.72
2022-10-09T10:56:48.913Z,41.43
2022-10-09T10:59:37.668Z,42.42
2022-10-09T11:02:17.630Z,44.24
2022-10-09T11:04:46.964Z,46.32
2022-10-09T11:08:01.902Z,47.65
2022-10-09T11:10:59.310Z,48.83
2022-10-09T11:13:52.057Z,50.58
2022-10-09T11:16:46.440Z,44.06
2022-10-09T11:19:45.406Z,39.33
2022-10-09T11:22:30.975Z,38.50
2022-10-09T11:25:12.683Z,36.57
2022-10-09T11:28:01.087Z,38.16
2022-10-09T11:30:33.459Z,37.84
2022-10-09T11:33:10.769Z,38.07
2022-10-09T11:35:51.952Z,36.52
2022-10-09T11:38:30.444Z,37.03
2022-10-09T11:40:58.351Z,34.65
2022-10-09T11:43:24.775Z,31.31
2022-10-09T11:45:56.269Z,29.40
2022-10-09T11:48:44.700Z,28.40
2022-10-09T11:51:38.366Z,25.92
2022-10-09T11:54:11.448Z,24.46
2022-10-09T11:56:37.798Z,23.92
2022-10-09T11:59:06.887Z,23.17
2022-10-09T12:01:44.439Z,23.24
2022-10-09T12:04:14.500Z,23.77
2022-10-09T12:06:54.388Z,23.40
2022-10-09T12:09:32.652Z,25.70
2022-10-09T12:12:09.031Z,27.67
2022-10-09T12:14:37.763Z,25.68
2022-10-09T12:17:23.704Z,24.50
2022-10-09T12:19:55.351Z,24.64
2022-10-09T12:22:56.425Z,28.16
2022-10-09T12:25:43.360Z,31.67
2022-10-09T12:28:28.556Z,31.35
2022-10-09T12:30:57.657Z,32.43
2022-10-09T12:33:30.357Z,33.77
2022-10-09T12:36:14.033Z,34.09
2022-10-09T12:38:41.751Z,36.14
2022-10-09T12:41:20.831Z,37.94
2022-10-09T12:43:51.025Z,36.21
2022-10-09T12:46:35.878Z,35.64
2022-10-09T12:49:05.372Z,35.87
2022-10-09T12:51:33.571Z,35.83
2022-10-09T12:54:07.572Z,30.57
2022-10-09T12:56:38.317Z,27.30
2022-10-09T12:59:06.688Z,25.04
2022-10-09T13:01:34.292Z,22.74
2022-10-09T13:04:05.895Z,23.11
2022-10-09T13:06:36.155Z,25.17
2022-10-09T13:09:06.028Z,25.47
2022-10-09T13:11:37.970Z,27.13
2022-10-09T13:14:05.076Z,27.25
2022-10-09T13:16:42.714Z,24.85
2022-10-09T13:19:27.742Z,25.83
2022-10-09T13:22:25.290Z,24.59
2022-10-09T13:24:54.121Z,24.90
2022-10-09T13:27:27.377Z,25.45
2022-10-09T13:29:54.413Z,26.76
2022-10-09T13:32:20.905Z,29.37
2022-10-09T13:34:47.397Z,29.93
2022-10-09T13:37:15.448Z,28.14
2022-10-09T13:39:42.207Z,29.51
2022-10-09T13:42:13.870Z,28.87
2022-10-09T13:44:40.240Z,27.13
2022-10-09T13:47:06.590Z,28.56
2022-10-09T13:49:33.052Z,28.85
2022-10-09T13:51:59.534Z,29.69
2022-10-09T13:54:26.133Z,29.19
2022-10-09T13:56:52.656Z,31.13
2022-10-09T13:59:19.020Z,30.26
2022-10-09T14:01:46.049Z,30.24
2022-10-09T14:04:12.755Z,30.26
2022-10-09T14:06:39.226Z,30.99
2022-10-09T14:09:05.617Z,31.42
2022-10-09T14:11:33.174Z,31.94
2022-10-09T14:14:00.539Z,33.26
2022-10-09T14:16:29.611Z,34.28
2022-10-09T14:19:00.253Z,35.24
2022-10-09T14:21:27.170Z,36.11
2022-10-09T14:23:58.910Z,36.90
2022-10-09T14:26:26.396Z,37.18
2022-10-09T14:28:53.923Z,37.26
2022-10-09T14:31:20.584Z,38.75
2022-10-09T14:33:48.484Z,37.83
2022-10-09T14:36:22.191Z,39.40
2022-10-09T14:38:49.253Z,38.98
2022-10-09T14:41:17.886Z,38.71
2022-10-09T14:43:51.785Z,40.01
2022-10-09T14:46:18.241Z,40.27
2022-10-09T14:48:48.444Z,40.83
2022-10-09T14:51:17.890Z,40.71
2022-10-09T14:53:45.071Z,41.71
2022-10-09T14:56:14.653Z,42.59
2022-10-09T14:58:41.733Z,42.42
2022-10-09T15:01:12.681Z,42.17
2022-10-09T15:03:39.189Z,41.99
2022-10-09T15:06:07.445Z,42.81
2022-10-09T15:08:36.067Z,42.90
2022-10-09T15:11:03.067Z,43.01
2022-10-09T15:13:29.977Z,43.33
2022-10-09T15:16:05.037Z,43.37
2022-10-09T15:18:31.467Z,43.45
2022-10-09T15:20:59.560Z,43.85
2022-10-09T15:23:27.024Z,44.44
2022-10-09T15:25:55.693Z,44.28
2022-10-09T15:28:22.589Z,44.23
2022-10-09T15:30:59.060Z,45.12
2022-10-09T15:33:26.074Z,45.30
2022-10-09T15:35:53.397Z,44.45
2022-10-09T15:38:22.608Z,44.88
2022-10-09T15:40:59.227Z,45.69
2022-10-09T15:43:27.876Z,45.52
2022-10-09T15:46:02.495Z,46.20
2022-10-09T15:48:29.180Z,46.38
2022-10-09T15:50:55.628Z,46.88
2022-10-09T15:53:24.716Z,47.71
2022-10-09T15:55:52.922Z,48.16
2022-10-09T15:58:19.947Z,47.29
2022-10-09T16:00:48.581Z,48.14
2022-10-09T16:03:17.208Z,47.95
2022-10-09T16:05:48.362Z,47.54
2022-10-09T16:08:16.380Z,47.91
2022-10-09T16:10:49.308Z,48.43
2022-10-09T16:13:16.295Z,48.37
2022-10-09T16:15:44.732Z,48.78
2022-10-09T16:18:11.293Z,49.31
2022-10-09T16:20:39.249Z,49.68
2022-10-09T16:23:06.491Z,49.58
2022-10-09T16:25:33.331Z,50.57
2022-10-09T16:27:59.979Z,50.83
2022-10-09T16:30:27.453Z,51.91
2022-10-09T16:32:53.961Z,52.76
2022-10-09T16:35:21.630Z,52.54
2022-10-09T16:37:48.180Z,52.88
2022-10-09T16:40:14.624Z,53.61
2022-10-09T16:42:41.063Z,54.21
2022-10-09T16:45:08.091Z,53.61
2022-10-09T16:47:34.640Z,54.02
2022-10-09T16:50:01.059Z,54.34
2022-10-09T16:52:27.431Z,54.64
2022-10-09T16:54:57.076Z,54.57
2022-10-09T16:57:25.949Z,54.75
2022-10-09T16:59:52.439Z,54.77
2022-10-09T17:02:18.839Z,54.44
2022-10-09T17:04:46.029Z,54.74
2022-10-09T17:07:12.856Z,55.00
2022-10-09T17:09:40.431Z,55.61
2022-10-09T17:12:10.352Z,55.50
2022-10-09T17:14:37.800Z,55.45
2022-10-09T17:17:06.275Z,56.21
2022-10-09T17:19:32.910Z,55.45
2022-10-09T17:22:00.673Z,56.16
2022-10-09T17:24:28.348Z,55.93
2022-10-09T17:26:55.676Z,55.91
2022-10-09T17:29:22.565Z,56.19
2022-10-09T17:31:49.073Z,55.98
2022-10-09T17:34:15.901Z,55.64
2022-10-09T17:36:43.992Z,56.32
2022-10-09T17:39:16.673Z,56.77
2022-10-09T17:41:47.378Z,57.07
2022-10-09T17:44:15.229Z,57.36
2022-10-09T17:46:42.174Z,57.46
2022-10-09T17:49:10.088Z,57.29
2022-10-09T17:51:39.492Z,57.29
2022-10-09T17:54:11.977Z,57.45
2022-10-09T17:56:39.260Z,57.68
2022-10-09T17:59:06.371Z,58.17
2022-10-09T18:01:33.622Z,58.11
2022-10-09T18:04:00.170Z,57.69
2022-10-09T18:06:27.319Z,58.25
2022-10-09T18:08:55.688Z,58.27
2022-10-09T18:11:23.660Z,58.07
2022-10-09T18:13:50.803Z,58.18
2022-10-09T18:16:22.383Z,58.21
2022-10-09T18:18:49.001Z,58.72
2022-10-09T18:21:16.904Z,58.59
2022-10-09T18:23:45.415Z,58.51
2022-10-09T18:26:15.180Z,58.55
2022-10-09T18:28:44.730Z,58.80
2022-10-09T18:31:20.119Z,58.87
2022-10-09T18:33:46.788Z,58.51
2022-10-09T18:36:19.791Z,58.91
2022-10-09T18:38:48.654Z,59.00
2022-10-09T18:41:15.727Z,58.73
2022-10-09T18:43:42.055Z,58.76
2022-10-09T18:46:09.054Z,59.19
2022-10-09T18:48:39.482Z,58.46
2022-10-09T18:51:09.006Z,59.04
2022-10-09T18:53:37.835Z,59.17
2022-10-09T18:56:06.708Z,58.86
2022-10-09T18:58:34.618Z,59.31
2022-10-09T19:01:04.287Z,58.76
2022-10-09T19:03:33.183Z,58.88
2022-10-09T19:05:59.747Z,59.30
2022-10-09T19:08:26.224Z,59.12
2022-10-09T19:10:53.097Z,58.87
2022-10-09T19:13:20.588Z,59.18
2022-10-09T19:15:52.101Z,59.47
2022-10-09T19:18:18.679Z,59.03
2022-10-09T19:20:45.191Z,59.03
2022-10-09T19:23:14.462Z,59.15
2022-10-09T19:25:52.660Z,59.22
2022-10-09T19:28:20.564Z,59.41
2022-10-09T19:30:47.379Z,59.18
2022-10-09T19:33:14.419Z,59.44
2022-10-09T19:35:48.328Z,59.43
2022-10-09T19:38:15.131Z,59.33
2022-10-09T19:40:41.630Z,59.74
2022-10-09T19:43:08.279Z,59.45
2022-10-09T19:45:35.138Z,60.04
2022-10-09T19:48:01.705Z,59.74
2022-10-09T19:50:28.382Z,59.70
2022-10-09T19:52:55.306Z,60.14
2022-10-09T19:55:22.305Z,59.59
2022-10-09T19:57:49.297Z,60.09
2022-10-09T20:00:16.154Z,60.14
2022-10-09T20:02:42.675Z,59.68
2022-10-09T20:05:09.229Z,59.97
2022-10-09T20:07:35.628Z,59.83
2022-10-09T20:10:02.504Z,59.73
2022-10-09T20:12:28.968Z,59.88
2022-10-09T20:14:55.380Z,60.10
2022-10-09T20:17:21.895Z,59.82
2022-10-09T20:19:48.261Z,59.63
2022-10-09T20:22:14.960Z,59.95
2022-10-09T20:24:41.321Z,60.13
2022-10-09T20:27:07.767Z,60.11
2022-10-09T20:29:34.265Z,59.66
2022-10-09T20:32:00.626Z,59.64
2022-10-09T20:34:27.648Z,59.94
2022-10-09T20:36:54.491Z,59.91
2022-10-09T20:39:21.378Z,60.22
2022-10-09T20:41:48.209Z,59.65
2022-10-09T20:44:16.191Z,59.96
2022-10-09T20:46:42.954Z,59.72
2022-10-09T20:49:13.941Z,60.00
2022-10-09T20:51:41.490Z,59.62
2022-10-09T20:54:13.653Z,59.87
2022-10-09T20:56:40.198Z,59.60
2022-10-09T20:59:06.644Z,59.60
2022-10-09T21:01:33.219Z,59.81
2022-10-09T21:04:04.650Z,59.90
2022-10-09T21:06:31.590Z,59.69
2022-10-09T21:08:58.718Z,59.44
2022-10-09T21:11:25.565Z,59.95
2022-10-09T21:13:51.910Z,59.30
2022-10-09T21:16:21.499Z,59.42
2022-10-09T21:18:48.448Z,59.37
2022-10-09T21:21:17.428Z,59.45
2022-10-09T21:23:44.797Z,59.80
2022-10-09T21:26:18.435Z,59.67
2022-10-09T21:28:45.356Z,59.35
2022-10-09T21:31:15.879Z,59.68
2022-10-09T21:33:42.513Z,59.70
2022-10-09T21:36:11.085Z,59.30
2022-10-09T21:38:37.803Z,59.15
2022-10-09T21:41:04.540Z,59.11
2022-10-09T21:43:30.967Z,59.23
2022-10-09T21:45:57.338Z,59.78
2022-10-09T21:48:23.759Z,59.71
2022-10-09T21:50:50.245Z,59.41
2022-10-09T21:53:16.685Z,59.31
2022-10-09T21:55:43.087Z,59.32
2022-10-09T21:58:10.341Z,59.43
2022-10-09T22:00:36.899Z,59.51
2022-10-09T22:03:03.401Z,59.67
2022-10-09T22:05:29.877Z,59.52
2022-10-09T22:07:56.513Z,59.53
2022-10-09T22:10:23.147Z,58.99
2022-10-09T22:12:50.242Z,59.37
2022-10-09T22:15:17.221Z,59.39
2022-10-09T22:17:43.648Z,59.85
2022-10-09T22:20:10.314Z,59.90
2022-10-09T22:22:36.772Z,60.05
2022-10-09T22:25:03.753Z,59.89
2022-10-09T22:27:30.356Z,59.84
2022-10-09T22:29:56.830Z,60.14
2022-10-09T22:32:23.367Z,59.67
2022-10-09T22:34:51.129Z,59.86
2022-10-09T22:37:17.599Z,59.95
2022-10-09T22:39:44.027Z,60.05
2022-10-09T22:42:10.454Z,59.94
2022-10-09T22:44:37.259Z,59.84
2022-10-09T22:47:03.756Z,59.97
2022-10-09T22:49:30.171Z,60.08
2022-10-09T22:51:56.604Z,59.89
2022-10-09T22:54:23.066Z,60.14
2022-10-09T22:56:49.483Z,60.18
2022-10-09T22:59:17.991Z,59.90
2022-10-09T23:01:48.409Z,60.14
2022-10-09T23:04:16.745Z,60.28
2022-10-09T23:06:44.606Z,60.31
2022-10-09T23:09:13.487Z,59.79
2022-10-09T23:11:40.244Z,59.40
2022-10-09T23:14:06.647Z,59.51
2022-10-09T23:16:33.619Z,59.59
2022-10-09T23:19:06.134Z,60.13
2022-10-09T23:21:33.958Z,59.75
2022-10-09T23:24:00.317Z,59.65
2022-10-09T23:26:29.393Z,59.99
2022-10-09T23:29:00.639Z,59.82
2022-10-09T23:31:29.194Z,59.87
2022-10-09T23:33:57.000Z,60.07
2022-10-09T23:36:26.279Z,60.10
2022-10-09T23:38:53.349Z,60.20
2022-10-09T23:41:25.111Z,60.18
2022-10-09T23:43:51.855Z,60.17
2022-10-09T23:46:22.128Z,59.86
2022-10-09T23:48:50.980Z,60.03
2022-10-09T23:51:19.546Z,59.92
2022-10-09T23:53:46.236Z,60.38
2022-10-09T23:56:23.066Z,60.37
2022-10-09T23:58:50.035Z,59.95
